createdAt,value
2023-05-17T00:01:57.568Z,100.00
2023-05-17T00:06:59.613Z,100.00
2023-05-17T00:12:01.578Z,100.00
2023-05-17T00:17:03.507Z,100.00
2023-05-17T00:22:05.410Z,100.00
2023-05-17T00:27:07.373Z,100.00
2023-05-17T00:32:09.257Z,100.00
2023-05-17T00:37:11.125Z,100.00
2023-05-17T00:42:14.675Z,100.00
2023-05-17T00:47:16.752Z,100.00
2023-05-17T00:52:18.681Z,100.00
2023-05-17T00:57:21.020Z,100.00
2023-05-17T01:02:22.859Z,100.00
2023-05-17T01:07:24.781Z,100.00
2023-05-17T01:12:52.029Z,100.00
2023-05-17T01:17:59.907Z,100.00
2023-05-17T01:23:24.310Z,100.00
2023-05-17T01:28:27.301Z,100.00
2023-05-17T01:33:30.553Z,100.00
2023-05-17T01:38:32.450Z,100.00
2023-05-17T01:44:02.781Z,100.00
2023-05-17T01:49:17.104Z,100.00
2023-05-17T01:54:23.398Z,100.00
2023-05-17T01:59:27.745Z,100.00
2023-05-17T02:04:31.086Z,100.00
2023-05-17T02:09:35.798Z,100.00
2023-05-17T02:14:37.650Z,100.00
2023-05-17T02:19:39.523Z,100.00
2023-05-17T02:24:42.214Z,100.00
2023-05-17T02:29:44.073Z,100.00
2023-05-17T02:34:45.921Z,100.00
2023-05-17T02:39:47.776Z,100.00
2023-05-17T02:44:53.052Z,100.00
2023-05-17T02:49:55.001Z,100.00
2023-05-17T02:54:57.068Z,100.00
2023-05-17T02:59:58.950Z,100.00
2023-05-17T03:05:02.041Z,100.00
2023-05-17T03:10:04.337Z,100.00
2023-05-17T03:15:13.056Z,100.00
2023-05-17T03:20:15.106Z,100.00
2023-05-17T03:25:18.044Z,100.00
2023-05-17T03:30:20.168Z,100.00
2023-05-17T03:35:24.907Z,100.00
2023-05-17T03:40:30.263Z,100.00
2023-05-17T03:45:33.696Z,100.00
2023-05-17T03:50:35.742Z,100.00
2023-05-17T03:55:37.943Z,100.00
2023-05-17T04:00:40.127Z,100.00
2023-05-17T04:05:48.172Z,100.00
2023-05-17T04:10:50.205Z,100.00
2023-05-17T04:15:52.062Z,100.00
2023-05-17T04:20:55.715Z,100.00
2023-05-17T04:25:58.622Z,100.00
2023-05-17T04:31:01.466Z,100.00
2023-05-17T04:36:04.069Z,100.00
2023-05-17T04:41:09.625Z,100.00
2023-05-17T04:46:13.404Z,100.00
2023-05-17T04:51:15.484Z,100.00
2023-05-17T04:56:18.196Z,100.00
2023-05-17T05:01:20.474Z,100.00
2023-05-17T05:06:22.627Z,100.00
2023-05-17T05:11:24.732Z,100.00
2023-05-17T05:16:26.747Z,100.00
2023-05-17T05:21:28.734Z,100.00
2023-05-17T05:26:32.076Z,100.00
2023-05-17T05:31:36.439Z,100.00
2023-05-17T05:36:39.529Z,100.00
2023-05-17T05:41:41.463Z,100.00
2023-05-17T05:46:43.396Z,100.00
2023-05-17T05:51:45.273Z,100.00
2023-05-17T05:56:47.123Z,100.00
2023-05-17T06:01:50.820Z,100.00
2023-05-17T06:06:53.981Z,100.00
2023-05-17T06:11:55.707Z,100.00
2023-05-17T06:16:57.350Z,100.00
2023-05-17T06:21:59.013Z,100.00
2023-05-17T06:27:00.658Z,100.00
2023-05-17T06:32:02.325Z,100.00
2023-05-17T06:37:04.210Z,100.00
2023-05-17T06:42:05.975Z,100.00
2023-05-17T06:47:11.105Z,100.00
2023-05-17T06:52:12.769Z,100.00
2023-05-17T06:57:14.432Z,100.00
2023-05-17T07:02:16.081Z,100.00
2023-05-17T07:07:17.929Z,100.00
2023-05-17T07:12:19.599Z,100.00
2023-05-17T07:17:21.321Z,100.00
2023-05-17T07:22:32.672Z,100.00
2023-05-17T07:27:52.235Z,100.00
2023-05-17T07:32:59.479Z,100.00
2023-05-17T07:38:01.568Z,100.00
2023-05-17T07:43:03.209Z,100.00
2023-05-17T07:48:05.199Z,100.00
2023-05-17T07:53:07.207Z,100.00
2023-05-17T07:58:11.931Z,100.00
2023-05-17T08:03:15.661Z,100.00
2023-05-17T08:08:18.860Z,100.00
2023-05-17T08:13:20.649Z,100.00
2023-05-17T08:18:22.394Z,100.00
2023-05-17T08:23:24.279Z,100.00
2023-05-17T08:28:25.950Z,100.00
2023-05-17T08:33:28.536Z,100.00
2023-05-17T08:38:30.452Z,100.00
2023-05-17T08:43:32.253Z,100.00
2023-05-17T08:48:36.851Z,100.00
2023-05-17T08:53:38.815Z,100.00
2023-05-17T08:58:55.376Z,100.00
2023-05-17T09:04:00.183Z,100.00
2023-05-17T09:09:02.055Z,100.00
2023-05-17T09:14:06.312Z,100.00
2023-05-17T09:19:09.151Z,100.00
2023-05-17T09:24:11.082Z,100.00
2023-05-17T09:29:15.128Z,100.00
2023-05-17T09:34:19.614Z,100.00
2023-05-17T09:39:21.536Z,100.00
2023-05-17T09:44:25.452Z,100.00
2023-05-17T09:49:28.876Z,100.00
2023-05-17T09:54:32.877Z,100.00
2023-05-17T09:59:35.273Z,100.00
2023-05-17T10:04:38.002Z,100.00
2023-05-17T10:09:40.334Z,100.00
2023-05-17T10:14:44.066Z,100.00
2023-05-17T10:19:47.078Z,100.00
2023-05-17T10:24:51.298Z,100.00
2023-05-17T10:29:54.660Z,100.00
2023-05-17T10:35:09.499Z,100.00
2023-05-17T10:40:17.571Z,100.00
2023-05-17T10:45:25.589Z,100.00
2023-05-17T10:50:27.584Z,100.00
2023-05-17T10:55:41.506Z,100.00
2023-05-17T11:00:55.147Z,100.00
2023-05-17T11:06:24.975Z,100.00
2023-05-17T11:11:27.900Z,100.00
2023-05-17T11:16:36.643Z,100.00
2023-05-17T11:21:51.531Z,72.28
2023-05-17T11:26:55.854Z,94.58
2023-05-17T11:32:02.314Z,100.00
2023-05-17T11:37:06.225Z,100.00
2023-05-17T11:42:25.020Z,99.74
2023-05-17T11:47:27.768Z,73.97
2023-05-17T11:52:30.220Z,91.86
2023-05-17T11:57:32.644Z,83.75
2023-05-17T12:02:34.485Z,100.00
2023-05-17T12:07:37.456Z,83.89
2023-05-17T12:12:41.418Z,77.60
2023-05-17T12:17:45.484Z,82.36
2023-05-17T12:22:57.177Z,98.26
2023-05-17T12:28:22.796Z,92.85
2023-05-17T12:33:26.231Z,78.17
2023-05-17T12:38:32.009Z,73.37
2023-05-17T12:43:34.870Z,75.86
2023-05-17T12:48:38.093Z,98.32
2023-05-17T12:53:41.146Z,100.00
2023-05-17T12:58:42.930Z,100.00
2023-05-17T13:03:51.489Z,74.91
2023-05-17T13:09:00.701Z,52.68
2023-05-17T13:14:02.434Z,67.75
2023-05-17T13:19:12.393Z,64.53
2023-05-17T13:24:14.146Z,71.28
2023-05-17T13:29:17.406Z,48.95
2023-05-17T13:34:21.140Z,55.46
2023-05-17T13:39:23.449Z,46.56
2023-05-17T13:44:25.505Z,43.15
2023-05-17T13:49:28.453Z,55.63
2023-05-17T13:54:30.152Z,79.84
2023-05-17T13:59:32.136Z,69.00
2023-05-17T14:04:34.376Z,58.62
2023-05-17T14:09:36.870Z,75.38
2023-05-17T14:14:38.572Z,55.98
2023-05-17T14:19:40.550Z,37.83
2023-05-17T14:24:42.346Z,48.52
2023-05-17T14:29:43.999Z,52.63
2023-05-17T14:34:45.728Z,45.09
2023-05-17T14:51:17.080Z,43.32
2023-05-17T15:01:45.557Z,32.34
2023-05-17T15:06:47.699Z,29.01
2023-05-17T15:11:50.689Z,30.44
2023-05-17T15:16:52.861Z,29.33
2023-05-17T15:21:54.638Z,25.18
2023-05-17T15:26:56.547Z,26.33
2023-05-17T15:32:01.640Z,28.14
2023-05-17T15:37:03.527Z,27.48
2023-05-17T15:42:05.839Z,30.65
2023-05-17T15:47:07.577Z,28.98
2023-05-17T15:52:09.331Z,37.02
2023-05-17T15:57:11.129Z,41.66
2023-05-17T16:02:12.968Z,64.14
2023-05-17T16:07:14.613Z,63.64
2023-05-17T16:12:16.262Z,65.87
2023-05-17T16:17:18.268Z,75.52
2023-05-17T16:22:20.531Z,75.44
2023-05-17T16:27:22.315Z,69.81
2023-05-17T16:32:24.097Z,75.11
2023-05-17T16:37:25.790Z,79.81
2023-05-17T16:42:27.512Z,73.28
2023-05-17T16:47:29.274Z,87.15
2023-05-17T16:52:31.180Z,84.94
2023-05-17T16:57:32.934Z,100.00
2023-05-17T17:02:34.670Z,100.00
2023-05-17T17:07:36.338Z,100.00
2023-05-17T17:12:37.971Z,100.00
2023-05-17T17:17:39.716Z,99.81
2023-05-17T17:22:41.509Z,100.00
2023-05-17T17:27:43.158Z,100.00
2023-05-17T17:32:45.053Z,100.00
2023-05-17T17:37:46.877Z,100.00
2023-05-17T17:42:48.571Z,100.00
2023-05-17T17:47:50.282Z,100.00
2023-05-17T17:52:51.975Z,100.00
2023-05-17T17:57:53.609Z,100.00
2023-05-17T18:02:55.455Z,100.00
2023-05-17T18:07:57.281Z,100.00
2023-05-17T18:12:59.242Z,100.00
2023-05-17T18:18:00.911Z,100.00
2023-05-17T18:23:02.698Z,100.00
2023-05-17T18:28:05.132Z,100.00
2023-05-17T18:33:08.147Z,100.00
2023-05-17T18:38:10.617Z,100.00
2023-05-17T18:43:12.942Z,100.00
2023-05-17T18:48:14.672Z,100.00
2023-05-17T18:53:16.439Z,100.00
2023-05-17T18:58:18.135Z,100.00
2023-05-17T19:03:20.112Z,100.00
2023-05-17T19:08:21.829Z,100.00
2023-05-17T19:13:23.516Z,100.00
2023-05-17T19:18:25.261Z,100.00
2023-05-17T19:23:28.141Z,100.00
2023-05-17T19:28:31.497Z,100.00
2023-05-17T19:33:34.087Z,100.00
2023-05-17T19:38:35.870Z,100.00
2023-05-17T19:43:38.122Z,100.00
2023-05-17T19:48:39.994Z,100.00
2023-05-17T19:53:52.471Z,100.00
2023-05-17T19:58:54.881Z,100.00
2023-05-17T20:03:56.751Z,100.00
2023-05-17T20:08:58.605Z,100.00
2023-05-17T20:14:00.407Z,100.00
2023-05-17T20:19:02.113Z,100.00
2023-05-17T20:24:06.679Z,100.00
2023-05-17T20:29:08.380Z,100.00
2023-05-17T20:34:10.920Z,100.00
2023-05-17T20:39:15.129Z,100.00
2023-05-17T20:44:18.786Z,100.00
2023-05-17T20:49:21.121Z,100.00
2023-05-17T20:54:25.406Z,100.00
2023-05-17T20:59:27.164Z,100.00
2023-05-17T21:04:28.812Z,100.00
2023-05-17T21:09:30.497Z,100.00
2023-05-17T21:14:32.135Z,100.00
2023-05-17T21:19:36.380Z,100.00
2023-05-17T21:24:38.178Z,100.00
2023-05-17T21:29:39.859Z,100.00
2023-05-17T21:34:43.346Z,100.00
2023-05-17T21:39:45.019Z,100.00
2023-05-17T21:44:46.724Z,100.00
2023-05-17T21:49:48.369Z,100.00
2023-05-17T21:54:50.040Z,100.00
2023-05-17T21:59:51.974Z,100.00
2023-05-17T22:04:53.860Z,100.00
2023-05-17T22:09:55.771Z,100.00
2023-05-17T22:14:57.817Z,100.00
2023-05-17T22:20:03.116Z,100.00
2023-05-17T22:25:05.547Z,100.00
2023-05-17T22:30:07.812Z,100.00
2023-05-17T22:35:09.536Z,100.00
2023-05-17T22:40:11.384Z,100.00
2023-05-17T22:45:14.320Z,100.00
2023-05-17T22:50:18.514Z,100.00
2023-05-17T22:55:20.361Z,100.00
2023-05-17T23:00:22.062Z,100.00
2023-05-17T23:05:23.706Z,100.00
2023-05-17T23:10:25.459Z,100.00
2023-05-17T23:15:28.414Z,100.00
2023-05-17T23:20:31.183Z,100.00
2023-05-17T23:25:32.834Z,100.00
2023-05-17T23:30:38.375Z,100.00
2023-05-17T23:35:40.079Z,100.00
2023-05-17T23:40:41.936Z,100.00
2023-05-17T23:45:43.873Z,100.00
2023-05-17T23:50:46.012Z,100.00
2023-05-17T23:55:47.887Z,100.00
